sensor_id;sensor_type;location;lat;lon;timestamp;pressure;altitude;pressure_sealevel;temperature;humidity
25350;BME280;13302;48.796;11.978;2022-10-04T00:02:31;97592.09;;;10.55;35.77
25350;BME280;13302;48.796;11.978;2022-10-04T00:05:22;97586.91;;;10.54;35.86
25350;BME280;13302;48.796;11.978;2022-10-04T00:08:32;97577.00;;;10.53;35.71
25350;BME280;13302;48.796;11.978;2022-10-04T00:11:29;97580.06;;;10.51;35.81
25350;BME280;13302;48.796;11.978;2022-10-04T00:14:22;97578.44;;;10.50;35.55
25350;BME280;13302;48.796;11.978;2022-10-04T00:17:13;97573.28;;;10.49;35.31
25350;BME280;13302;48.796;11.978;2022-10-04T00:23:43;97579.78;;;10.44;35.49
25350;BME280;13302;48.796;11.978;2022-10-04T00:29:34;97582.41;;;10.41;35.51
25350;BME280;13302;48.796;11.978;2022-10-04T00:38:15;97572.22;;;10.33;35.28
25350;BME280;13302;48.796;11.978;2022-10-04T00:41:04;97576.44;;;10.30;35.56
25350;BME280;13302;48.796;11.978;2022-10-04T00:43:55;97579.19;;;10.30;35.61
25350;BME280;13302;48.796;11.978;2022-10-04T00:46:44;97572.84;;;10.30;35.42
25350;BME280;13302;48.796;11.978;2022-10-04T00:49:35;97566.88;;;10.28;35.57
25350;BME280;13302;48.796;11.978;2022-10-04T00:52:28;97569.13;;;10.26;35.42
25350;BME280;13302;48.796;11.978;2022-10-04T00:55:24;97574.66;;;10.26;35.67
25350;BME280;13302;48.796;11.978;2022-10-04T00:58:21;97562.00;;;10.25;35.79
25350;BME280;13302;48.796;11.978;2022-10-04T01:01:11;97560.06;;;10.25;35.74
25350;BME280;13302;48.796;11.978;2022-10-04T01:03:59;97563.97;;;10.24;35.66
25350;BME280;13302;48.796;11.978;2022-10-04T01:06:48;97555.66;;;10.24;35.73
25350;BME280;13302;48.796;11.978;2022-10-04T01:09:43;97559.56;;;10.23;35.73
25350;BME280;13302;48.796;11.978;2022-10-04T01:12:42;97556.00;;;10.23;35.30
25350;BME280;13302;48.796;11.978;2022-10-04T01:15:39;97554.72;;;10.20;35.36
25350;BME280;13302;48.796;11.978;2022-10-04T01:18:32;97559.75;;;10.18;35.21
25350;BME280;13302;48.796;11.978;2022-10-04T01:26:54;97555.06;;;10.10;35.28
25350;BME280;13302;48.796;11.978;2022-10-04T01:29:41;97556.19;;;10.09;35.27
25350;BME280;13302;48.796;11.978;2022-10-04T01:32:29;97556.53;;;10.07;35.27
25350;BME280;13302;48.796;11.978;2022-10-04T01:35:16;97548.59;;;10.06;35.44
25350;BME280;13302;48.796;11.978;2022-10-04T01:38:05;97552.47;;;10.05;35.24
25350;BME280;13302;48.796;11.978;2022-10-04T01:40:56;97555.91;;;10.02;35.32
25350;BME280;13302;48.796;11.978;2022-10-04T01:43:49;97536.09;;;10.00;35.24
25350;BME280;13302;48.796;11.978;2022-10-04T01:46:39;97531.72;;;9.99;35.21
25350;BME280;13302;48.796;11.978;2022-10-04T01:49:32;97537.09;;;9.95;35.33
25350;BME280;13302;48.796;11.978;2022-10-04T01:52:30;97532.72;;;9.94;35.35
25350;BME280;13302;48.796;11.978;2022-10-04T01:55:23;97536.94;;;9.92;35.30
25350;BME280;13302;48.796;11.978;2022-10-04T01:58:18;97530.13;;;9.89;35.28
25350;BME280;13302;48.796;11.978;2022-10-04T02:01:42;97518.94;;;9.86;35.40
25350;BME280;13302;48.796;11.978;2022-10-04T02:04:34;97526.41;;;9.85;35.38
25350;BME280;13302;48.796;11.978;2022-10-04T02:07:24;97524.44;;;9.86;35.44
25350;BME280;13302;48.796;11.978;2022-10-04T02:10:17;97514.88;;;9.83;35.31
25350;BME280;13302;48.796;11.978;2022-10-04T02:13:08;97525.94;;;9.83;35.37
25350;BME280;13302;48.796;11.978;2022-10-04T02:15:57;97519.09;;;9.81;35.19
25350;BME280;13302;48.796;11.978;2022-10-04T02:18:45;97525.78;;;9.80;35.06
25350;BME280;13302;48.796;11.978;2022-10-04T02:21:34;97526.44;;;9.77;35.36
25350;BME280;13302;48.796;11.978;2022-10-04T02:24:22;97526.44;;;9.77;35.19
25350;BME280;13302;48.796;11.978;2022-10-04T02:27:10;97534.25;;;9.75;34.94
25350;BME280;13302;48.796;11.978;2022-10-04T02:30:06;97525.00;;;9.71;35.17
25350;BME280;13302;48.796;11.978;2022-10-04T02:32:56;97525.31;;;9.69;35.11
25350;BME280;13302;48.796;11.978;2022-10-04T02:35:45;97513.00;;;9.66;35.13
25350;BME280;13302;48.796;11.978;2022-10-04T02:38:35;97515.59;;;9.63;35.27
25350;BME280;13302;48.796;11.978;2022-10-04T02:41:28;97496.59;;;9.61;35.27
25350;BME280;13302;48.796;11.978;2022-10-04T02:44:29;97496.91;;;9.60;35.14
25350;BME280;13302;48.796;11.978;2022-10-04T02:47:24;97503.25;;;9.60;35.36
25350;BME280;13302;48.796;11.978;2022-10-04T02:50:23;97513.00;;;9.58;35.21
25350;BME280;13302;48.796;11.978;2022-10-04T02:53:54;97516.91;;;9.57;35.38
25350;BME280;13302;48.796;11.978;2022-10-04T02:56:37;97526.28;;;9.56;35.47
25350;BME280;13302;48.796;11.978;2022-10-04T02:59:26;97528.25;;;9.55;35.65
25350;BME280;13302;48.796;11.978;2022-10-04T03:02:27;97527.44;;;9.55;35.40
25350;BME280;13302;48.796;11.978;2022-10-04T03:05:16;97531.81;;;9.56;35.60
25350;BME280;13302;48.796;11.978;2022-10-04T03:08:04;97527.09;;;9.56;35.53
25350;BME280;13302;48.796;11.978;2022-10-04T03:10:51;97519.97;;;9.55;35.72
25350;BME280;13302;48.796;11.978;2022-10-04T03:13:40;97524.34;;;9.56;35.68
25350;BME280;13302;48.796;11.978;2022-10-04T03:16:33;97520.75;;;9.56;35.89
25350;BME280;13302;48.796;11.978;2022-10-04T03:19:23;97513.28;;;9.56;35.92
25350;BME280;13302;48.796;11.978;2022-10-04T03:22:12;97516.06;;;9.56;35.98
25350;BME280;13302;48.796;11.978;2022-10-04T03:24:59;97521.09;;;9.54;36.15
25350;BME280;13302;48.796;11.978;2022-10-04T03:27:48;97513.50;;;9.51;36.40
25350;BME280;13302;48.796;11.978;2022-10-04T03:30:40;97518.19;;;9.51;36.30
25350;BME280;13302;48.796;11.978;2022-10-04T03:33:29;97516.25;;;9.51;36.31
25350;BME280;13302;48.796;11.978;2022-10-04T03:36:17;97505.03;;;9.48;36.19
25350;BME280;13302;48.796;11.978;2022-10-04T03:39:08;97495.94;;;9.47;36.00
25350;BME280;13302;48.796;11.978;2022-10-04T03:41:57;97493.19;;;9.47;36.10
25350;BME280;13302;48.796;11.978;2022-10-04T03:44:46;97496.28;;;9.46;36.02
25350;BME280;13302;48.796;11.978;2022-10-04T03:47:39;97505.69;;;9.45;36.09
25350;BME280;13302;48.796;11.978;2022-10-04T03:50:31;97504.06;;;9.44;36.09
25350;BME280;13302;48.796;11.978;2022-10-04T03:53:29;97510.41;;;9.44;36.08
25350;BME280;13302;48.796;11.978;2022-10-04T03:59:07;97513.66;;;9.46;36.39
25350;BME280;13302;48.796;11.978;2022-10-04T04:02:03;97523.22;;;9.49;36.21
25350;BME280;13302;48.796;11.978;2022-10-04T04:05:05;97503.59;;;9.50;36.27
25350;BME280;13302;48.796;11.978;2022-10-04T04:08:03;97507.97;;;9.51;36.50
25350;BME280;13302;48.796;11.978;2022-10-04T04:10:55;97505.22;;;9.51;36.36
25350;BME280;13302;48.796;11.978;2022-10-04T04:14:05;97497.25;;;9.50;36.18
25350;BME280;13302;48.796;11.978;2022-10-04T04:20:12;97514.28;;;9.43;36.36
25350;BME280;13302;48.796;11.978;2022-10-04T04:23:10;97526.50;;;9.42;36.24
25350;BME280;13302;48.796;11.978;2022-10-04T04:26:21;97524.06;;;9.41;36.41
25350;BME280;13302;48.796;11.978;2022-10-04T04:32:00;97517.56;;;9.37;36.03
25350;BME280;13302;48.796;11.978;2022-10-04T04:34:52;97509.59;;;9.35;36.01
25350;BME280;13302;48.796;11.978;2022-10-04T04:37:40;97508.00;;;9.34;36.08
25350;BME280;13302;48.796;11.978;2022-10-04T04:40:26;97516.91;;;9.31;36.14
25350;BME280;13302;48.796;11.978;2022-10-04T04:43:18;97521.47;;;9.27;36.04
25350;BME280;13302;48.796;11.978;2022-10-04T04:46:07;97511.59;;;9.26;36.17
25350;BME280;13302;48.796;11.978;2022-10-04T04:49:15;97502.00;;;9.23;36.03
25350;BME280;13302;48.796;11.978;2022-10-04T04:52:04;97498.94;;;9.25;36.22
25350;BME280;13302;48.796;11.978;2022-10-04T04:54:54;97485.13;;;9.25;36.29
25350;BME280;13302;48.796;11.978;2022-10-04T04:57:42;97485.94;;;9.26;36.37
25350;BME280;13302;48.796;11.978;2022-10-04T05:00:33;97484.31;;;9.25;36.17
25350;BME280;13302;48.796;11.978;2022-10-04T05:03:21;97498.59;;;9.27;36.26
25350;BME280;13302;48.796;11.978;2022-10-04T05:06:25;97504.91;;;9.27;36.55
25350;BME280;13302;48.796;11.978;2022-10-04T05:12:19;97488.84;;;9.29;36.21
25350;BME280;13302;48.796;11.978;2022-10-04T05:15:08;97518.38;;;9.29;36.50
25350;BME280;13302;48.796;11.978;2022-10-04T05:17:57;97513.38;;;9.31;36.43
25350;BME280;13302;48.796;11.978;2022-10-04T05:20:49;97508.63;;;9.31;36.50
25350;BME280;13302;48.796;11.978;2022-10-04T05:23:37;97520.97;;;9.34;36.44
25350;BME280;13302;48.796;11.978;2022-10-04T05:26:29;97517.88;;;9.35;36.53
25350;BME280;13302;48.796;11.978;2022-10-04T05:29:18;97511.22;;;9.36;36.65
25350;BME280;13302;48.796;11.978;2022-10-04T05:32:31;97517.25;;;9.38;36.43
25350;BME280;13302;48.796;11.978;2022-10-04T05:35:22;97507.19;;;9.42;36.43
25350;BME280;13302;48.796;11.978;2022-10-04T05:38:28;97503.25;;;9.43;36.79
25350;BME280;13302;48.796;11.978;2022-10-04T05:41:38;97504.56;;;9.46;36.58
25350;BME280;13302;48.796;11.978;2022-10-04T05:44:35;97492.41;;;9.47;36.43
25350;BME280;13302;48.796;11.978;2022-10-04T05:47:25;97482.13;;;9.47;36.71
25350;BME280;13302;48.796;11.978;2022-10-04T05:50:32;97491.72;;;9.50;36.80
25350;BME280;13302;48.796;11.978;2022-10-04T05:53:29;97503.59;;;9.50;36.86
25350;BME280;13302;48.796;11.978;2022-10-04T05:59:47;97511.53;;;9.52;36.77
25350;BME280;13302;48.796;11.978;2022-10-04T06:02:49;97515.25;;;9.56;36.91
25350;BME280;13302;48.796;11.978;2022-10-04T06:05:55;97523.72;;;9.59;37.06
25350;BME280;13302;48.796;11.978;2022-10-04T06:11:58;97514.13;;;9.65;37.20
25350;BME280;13302;48.796;11.978;2022-10-04T06:15:16;97498.53;;;9.70;37.29
25350;BME280;13302;48.796;11.978;2022-10-04T06:24:34;97517.31;;;9.76;37.66
25350;BME280;13302;48.796;11.978;2022-10-04T06:27:38;97519.44;;;9.79;37.56
25350;BME280;13302;48.796;11.978;2022-10-04T06:30:31;97514.88;;;9.83;37.80
25350;BME280;13302;48.796;11.978;2022-10-04T06:33:34;97512.28;;;9.87;37.84
25350;BME280;13302;48.796;11.978;2022-10-04T06:42:55;97500.19;;;10.00;37.71
25350;BME280;13302;48.796;11.978;2022-10-04T07:10:20;97544.31;;;10.46;38.58
25350;BME280;13302;48.796;11.978;2022-10-04T07:13:38;97550.81;;;10.50;38.55
25350;BME280;13302;48.796;11.978;2022-10-04T07:16:38;97540.69;;;10.54;38.51
25350;BME280;13302;48.796;11.978;2022-10-04T07:19:35;97546.06;;;10.59;38.84
25350;BME280;13302;48.796;11.978;2022-10-04T07:22:29;97541.97;;;10.66;38.98
25350;BME280;13302;48.796;11.978;2022-10-04T07:25:45;97551.38;;;10.73;38.83
25350;BME280;13302;48.796;11.978;2022-10-04T07:28:39;97561.06;;;10.79;39.26
25350;BME280;13302;48.796;11.978;2022-10-04T07:31:49;97566.91;;;10.86;38.94
25350;BME280;13302;48.796;11.978;2022-10-04T07:34:44;97555.63;;;10.91;39.32
25350;BME280;13302;48.796;11.978;2022-10-04T07:37:36;97550.25;;;10.95;39.31
25350;BME280;13302;48.796;11.978;2022-10-04T07:40:35;97557.19;;;11.01;39.07
25350;BME280;13302;48.796;11.978;2022-10-04T07:43:28;97556.63;;;11.08;39.35
25350;BME280;13302;48.796;11.978;2022-10-04T07:49:24;97519.44;;;11.17;39.64
25350;BME280;13302;48.796;11.978;2022-10-04T07:55:28;97532.06;;;11.27;39.46
25350;BME280;13302;48.796;11.978;2022-10-04T08:01:32;97550.19;;;11.36;38.96
25350;BME280;13302;48.796;11.978;2022-10-04T08:04:37;97536.16;;;11.41;39.36
25350;BME280;13302;48.796;11.978;2022-10-04T08:08:30;97544.75;;;11.48;39.25
25350;BME280;13302;48.796;11.978;2022-10-04T08:11:13;97550.56;;;11.56;39.15
25350;BME280;13302;48.796;11.978;2022-10-04T08:20:32;97555.13;;;11.72;38.78
25350;BME280;13302;48.796;11.978;2022-10-04T08:29:39;97561.13;;;11.86;39.19
25350;BME280;13302;48.796;11.978;2022-10-04T08:36:00;97547.56;;;11.93;38.58
25350;BME280;13302;48.796;11.978;2022-10-04T08:38:56;97541.78;;;11.98;38.20
25350;BME280;13302;48.796;11.978;2022-10-04T08:45:33;97543.63;;;12.07;38.20
25350;BME280;13302;48.796;11.978;2022-10-04T08:49:07;97548.50;;;12.10;38.25
25350;BME280;13302;48.796;11.978;2022-10-04T08:58:55;97568.25;;;12.20;38.26
25350;BME280;13302;48.796;11.978;2022-10-04T09:18:13;97551.03;;;12.39;39.08
25350;BME280;13302;48.796;11.978;2022-10-04T09:21:11;97558.34;;;12.43;38.78
25350;BME280;13302;48.796;11.978;2022-10-04T09:24:19;97552.13;;;12.47;39.01
25350;BME280;13302;48.796;11.978;2022-10-04T09:34:07;97565.63;;;12.60;39.20
25350;BME280;13302;48.796;11.978;2022-10-04T09:37:07;97565.41;;;12.65;39.30
25350;BME280;13302;48.796;11.978;2022-10-04T09:44:01;97558.50;;;12.71;39.54
25350;BME280;13302;48.796;11.978;2022-10-04T09:53:27;97568.88;;;12.86;39.29
25350;BME280;13302;48.796;11.978;2022-10-04T10:00:07;97564.81;;;12.96;39.09
25350;BME280;13302;48.796;11.978;2022-10-04T10:09:39;97563.50;;;13.06;39.20
25350;BME280;13302;48.796;11.978;2022-10-04T10:20:00;97564.19;;;13.15;39.16
25350;BME280;13302;48.796;11.978;2022-10-04T10:29:39;97554.09;;;13.22;39.30
25350;BME280;13302;48.796;11.978;2022-10-04T10:36:07;97566.94;;;13.27;39.30
25350;BME280;13302;48.796;11.978;2022-10-04T10:46:02;97572.81;;;13.38;39.34
25350;BME280;13302;48.796;11.978;2022-10-04T10:56:04;97570.25;;;13.45;39.14
25350;BME280;13302;48.796;11.978;2022-10-04T11:09:23;97561.16;;;13.60;39.06
25350;BME280;13302;48.796;11.978;2022-10-04T11:12:37;97558.03;;;13.61;39.33
25350;BME280;13302;48.796;11.978;2022-10-04T11:15:49;97559.03;;;13.69;39.08
25350;BME280;13302;48.796;11.978;2022-10-04T11:35:07;97549.84;;;13.96;39.32
25350;BME280;13302;48.796;11.978;2022-10-04T11:38:08;97538.47;;;14.01;39.21
25350;BME280;13302;48.796;11.978;2022-10-04T11:41:14;97540.09;;;14.02;39.19
25350;BME280;13302;48.796;11.978;2022-10-04T12:01:05;97519.13;;;14.20;38.37
25350;BME280;13302;48.796;11.978;2022-10-04T12:10:37;97517.72;;;14.27;38.53
25350;BME280;13302;48.796;11.978;2022-10-04T12:17:02;97509.88;;;14.32;38.77
25350;BME280;13302;48.796;11.978;2022-10-04T12:26:29;97498.50;;;14.37;38.21
25350;BME280;13302;48.796;11.978;2022-10-04T12:33:08;97502.16;;;14.41;38.28
25350;BME280;13302;48.796;11.978;2022-10-04T12:42:20;97491.22;;;14.48;38.12
25350;BME280;13302;48.796;11.978;2022-10-04T12:45:54;97485.66;;;14.48;37.98
25350;BME280;13302;48.796;11.978;2022-10-04T12:54:41;97473.53;;;14.56;37.73
25350;BME280;13302;48.796;11.978;2022-10-04T12:57:51;97470.38;;;14.58;37.86
25350;BME280;13302;48.796;11.978;2022-10-04T13:00:42;97469.28;;;14.62;37.62
25350;BME280;13302;48.796;11.978;2022-10-04T13:03:34;97476.53;;;14.67;37.44
25350;BME280;13302;48.796;11.978;2022-10-04T13:10:20;97470.63;;;14.68;37.33
25350;BME280;13302;48.796;11.978;2022-10-04T13:20:05;97467.53;;;14.73;37.25
25350;BME280;13302;48.796;11.978;2022-10-04T13:23:14;97465.56;;;14.74;37.17
25350;BME280;13302;48.796;11.978;2022-10-04T13:29:22;97471.66;;;14.80;36.86
25350;BME280;13302;48.796;11.978;2022-10-04T13:32:17;97474.09;;;14.81;36.71
25350;BME280;13302;48.796;11.978;2022-10-04T13:35:16;97476.50;;;14.83;36.83
25350;BME280;13302;48.796;11.978;2022-10-04T13:41:15;97477.75;;;14.85;36.51
25350;BME280;13302;48.796;11.978;2022-10-04T13:50:33;97470.66;;;14.88;36.81
25350;BME280;13302;48.796;11.978;2022-10-04T13:53:25;97470.28;;;14.89;36.57
25350;BME280;13302;48.796;11.978;2022-10-04T14:03:01;97472.69;;;14.91;36.50
25350;BME280;13302;48.796;11.978;2022-10-04T14:12:06;97481.53;;;14.93;36.03
25350;BME280;13302;48.796;11.978;2022-10-04T14:33:43;97482.84;;;14.99;35.48
25350;BME280;13302;48.796;11.978;2022-10-04T14:43:02;97485.28;;;15.00;35.73
25350;BME280;13302;48.796;11.978;2022-10-04T14:49:15;97492.88;;;15.03;35.42
25350;BME280;13302;48.796;11.978;2022-10-04T14:52:15;97482.56;;;15.04;35.73
25350;BME280;13302;48.796;11.978;2022-10-04T14:58:33;97491.38;;;15.06;35.49
25350;BME280;13302;48.796;11.978;2022-10-04T15:01:27;97489.00;;;15.08;35.69
25350;BME280;13302;48.796;11.978;2022-10-04T15:04:27;97492.97;;;15.07;35.63
25350;BME280;13302;48.796;11.978;2022-10-04T15:07:26;97484.25;;;15.08;35.71
25350;BME280;13302;48.796;11.978;2022-10-04T15:10:35;97488.28;;;15.11;35.40
25350;BME280;13302;48.796;11.978;2022-10-04T15:13:32;97483.91;;;15.10;35.62
25350;BME280;13302;48.796;11.978;2022-10-04T15:16:44;97471.94;;;15.09;35.51
25350;BME280;13302;48.796;11.978;2022-10-04T15:22:46;97457.22;;;15.09;35.57
25350;BME280;13302;48.796;11.978;2022-10-04T15:34:34;97458.91;;;15.13;35.47
25350;BME280;13302;48.796;11.978;2022-10-04T16:08:30;97426.63;;;15.32;36.08
25350;BME280;13302;48.796;11.978;2022-10-04T16:11:45;97430.22;;;15.32;36.20
25350;BME280;13302;48.796;11.978;2022-10-04T16:17:48;97438.22;;;15.34;36.20
25350;BME280;13302;48.796;11.978;2022-10-04T16:20:55;97440.19;;;15.33;36.15
25350;BME280;13302;48.796;11.978;2022-10-04T16:34:22;97450.69;;;15.21;36.97
25350;BME280;13302;48.796;11.978;2022-10-04T16:37:17;97448.66;;;15.17;36.80
25350;BME280;13302;48.796;11.978;2022-10-04T16:42:58;97441.31;;;15.09;37.22
25350;BME280;13302;48.796;11.978;2022-10-04T16:46:08;97446.00;;;15.05;37.04
25350;BME280;13302;48.796;11.978;2022-10-04T16:49:02;97443.16;;;15.02;37.24
25350;BME280;13302;48.796;11.978;2022-10-04T17:10:41;97445.25;;;14.54;37.12
25350;BME280;13302;48.796;11.978;2022-10-04T17:13:37;97443.13;;;14.48;37.52
25350;BME280;13302;48.796;11.978;2022-10-04T17:16:53;97440.28;;;14.44;37.30
25350;BME280;13302;48.796;11.978;2022-10-04T17:19:49;97455.25;;;14.40;37.45
25350;BME280;13302;48.796;11.978;2022-10-04T17:38:16;97469.97;;;14.09;37.00
25350;BME280;13302;48.796;11.978;2022-10-04T17:44:19;97478.75;;;13.95;37.23
25350;BME280;13302;48.796;11.978;2022-10-04T17:47:39;97471.38;;;13.87;37.43
25350;BME280;13302;48.796;11.978;2022-10-04T17:51:03;97477.59;;;13.80;37.54
25350;BME280;13302;48.796;11.978;2022-10-04T17:54:21;97473.81;;;13.73;37.32
25350;BME280;13302;48.796;11.978;2022-10-04T18:00:23;97485.44;;;13.63;37.71
25350;BME280;13302;48.796;11.978;2022-10-04T18:03:16;97479.34;;;13.57;37.58
25350;BME280;13302;48.796;11.978;2022-10-04T18:06:28;97472.50;;;13.55;37.72
25350;BME280;13302;48.796;11.978;2022-10-04T18:09:32;97476.34;;;13.50;37.59
25350;BME280;13302;48.796;11.978;2022-10-04T18:12:28;97475.47;;;13.46;37.54
25350;BME280;13302;48.796;11.978;2022-10-04T18:15:41;97476.97;;;13.44;37.70
25350;BME280;13302;48.796;11.978;2022-10-04T18:18:41;97486.03;;;13.41;37.52
25350;BME280;13302;48.796;11.978;2022-10-04T18:21:30;97481.16;;;13.38;37.52
25350;BME280;13302;48.796;11.978;2022-10-04T18:24:19;97482.25;;;13.33;37.25
25350;BME280;13302;48.796;11.978;2022-10-04T18:27:16;97472.84;;;13.25;37.25
25350;BME280;13302;48.796;11.978;2022-10-04T18:30:18;97469.19;;;13.21;37.28
25350;BME280;13302;48.796;11.978;2022-10-04T18:33:12;97473.81;;;13.17;37.48
25350;BME280;13302;48.796;11.978;2022-10-04T18:36:17;97470.59;;;13.15;37.65
25350;BME280;13302;48.796;11.978;2022-10-04T18:39:17;97477.22;;;13.11;37.20
25350;BME280;13302;48.796;11.978;2022-10-04T18:42:20;97478.28;;;13.06;37.05
25350;BME280;13302;48.796;11.978;2022-10-04T18:45:20;97465.81;;;13.00;37.23
25350;BME280;13302;48.796;11.978;2022-10-04T18:48:14;97474.38;;;12.95;37.57
25350;BME280;13302;48.796;11.978;2022-10-04T18:51:32;97478.22;;;12.91;37.28
25350;BME280;13302;48.796;11.978;2022-10-04T18:57:44;97484.72;;;12.82;37.26
25350;BME280;13302;48.796;11.978;2022-10-04T19:00:59;97486.56;;;12.78;37.15
25350;BME280;13302;48.796;11.978;2022-10-04T19:04:25;97480.91;;;12.75;37.33
25350;BME280;13302;48.796;11.978;2022-10-04T19:13:32;97490.41;;;12.62;37.49
25350;BME280;13302;48.796;11.978;2022-10-04T19:23:43;97479.34;;;12.50;37.50
25350;BME280;13302;48.796;11.978;2022-10-04T19:27:03;97472.88;;;12.46;37.25
25350;BME280;13302;48.796;11.978;2022-10-04T19:30:15;97482.34;;;12.45;37.27
25350;BME280;13302;48.796;11.978;2022-10-04T19:42:39;97494.94;;;12.30;37.27
25350;BME280;13302;48.796;11.978;2022-10-04T19:45:58;97497.22;;;12.28;37.32
25350;BME280;13302;48.796;11.978;2022-10-04T19:48:49;97502.66;;;12.24;37.28
25350;BME280;13302;48.796;11.978;2022-10-04T19:51:44;97497.81;;;12.21;37.15
25350;BME280;13302;48.796;11.978;2022-10-04T19:54:37;97488.19;;;12.19;37.05
25350;BME280;13302;48.796;11.978;2022-10-04T19:57:36;97480.59;;;12.16;37.37
25350;BME280;13302;48.796;11.978;2022-10-04T20:00:24;97493.19;;;12.13;37.35
25350;BME280;13302;48.796;11.978;2022-10-04T20:03:11;97487.97;;;12.12;37.32
25350;BME280;13302;48.796;11.978;2022-10-04T20:05:58;97498.63;;;12.10;37.18
25350;BME280;13302;48.796;11.978;2022-10-04T20:17:28;97485.19;;;12.00;37.15
25350;BME280;13302;48.796;11.978;2022-10-04T20:26:38;97479.66;;;11.87;37.31
25350;BME280;13302;48.796;11.978;2022-10-04T20:45:17;97518.63;;;11.70;36.88
25350;BME280;13302;48.796;11.978;2022-10-04T20:48:10;97520.94;;;11.68;37.25
25350;BME280;13302;48.796;11.978;2022-10-04T20:51:06;97527.16;;;11.65;37.21
25350;BME280;13302;48.796;11.978;2022-10-04T20:53:55;97526.81;;;11.67;37.01
25350;BME280;13302;48.796;11.978;2022-10-04T20:56:45;97526.69;;;11.63;37.11
25350;BME280;13302;48.796;11.978;2022-10-04T20:59:34;97524.75;;;11.64;37.11
25350;BME280;13302;48.796;11.978;2022-10-04T21:02:23;97522.78;;;11.64;37.21
25350;BME280;13302;48.796;11.978;2022-10-04T21:05:23;97528.66;;;11.63;37.36
25350;BME280;13302;48.796;11.978;2022-10-04T21:08:12;97530.59;;;11.62;37.10
25350;BME280;13302;48.796;11.978;2022-10-04T21:13:58;97531.28;;;11.59;37.04
25350;BME280;13302;48.796;11.978;2022-10-04T21:16:47;97534.88;;;11.60;36.89
25350;BME280;13302;48.796;11.978;2022-10-04T21:25:31;97535.09;;;11.55;37.19
25350;BME280;13302;48.796;11.978;2022-10-04T21:28:32;97529.09;;;11.53;37.05
25350;BME280;13302;48.796;11.978;2022-10-04T21:31:19;97539.66;;;11.50;36.96
25350;BME280;13302;48.796;11.978;2022-10-04T21:34:06;97549.47;;;11.48;36.98
25350;BME280;13302;48.796;11.978;2022-10-04T21:36:53;97542.63;;;11.45;36.81
25350;BME280;13302;48.796;11.978;2022-10-04T21:39:40;97545.75;;;11.44;36.75
25350;BME280;13302;48.796;11.978;2022-10-04T21:42:27;97536.50;;;11.40;36.83
25350;BME280;13302;48.796;11.978;2022-10-04T21:45:14;97539.28;;;11.40;36.89
25350;BME280;13302;48.796;11.978;2022-10-04T21:48:01;97535.22;;;11.37;37.10
25350;BME280;13302;48.796;11.978;2022-10-04T21:50:49;97538.34;;;11.36;36.60
25350;BME280;13302;48.796;11.978;2022-10-04T21:53:36;97536.72;;;11.35;36.68
25350;BME280;13302;48.796;11.978;2022-10-04T21:56:24;97533.81;;;11.31;36.83
25350;BME280;13302;48.796;11.978;2022-10-04T21:59:11;97531.72;;;11.28;36.82
25350;BME280;13302;48.796;11.978;2022-10-04T22:01:58;97534.03;;;11.26;36.74
25350;BME280;13302;48.796;11.978;2022-10-04T22:04:45;97535.16;;;11.25;36.97
25350;BME280;13302;48.796;11.978;2022-10-04T22:07:32;97533.53;;;11.24;36.75
25350;BME280;13302;48.796;11.978;2022-10-04T22:10:18;97534.72;;;11.23;36.40
25350;BME280;13302;48.796;11.978;2022-10-04T22:13:06;97532.28;;;11.22;36.29
25350;BME280;13302;48.796;11.978;2022-10-04T22:15:53;97532.97;;;11.19;36.47
25350;BME280;13302;48.796;11.978;2022-10-04T22:18:40;97541.94;;;11.16;36.53
25350;BME280;13302;48.796;11.978;2022-10-04T22:21:27;97535.09;;;11.13;36.57
25350;BME280;13302;48.796;11.978;2022-10-04T22:24:19;97539.38;;;11.11;36.94
25350;BME280;13302;48.796;11.978;2022-10-04T22:27:13;97541.66;;;11.09;36.59
25350;BME280;13302;48.796;11.978;2022-10-04T22:30:00;97542.00;;;11.07;36.78
25350;BME280;13302;48.796;11.978;2022-10-04T22:32:48;97550.63;;;11.05;36.93
25350;BME280;13302;48.796;11.978;2022-10-04T22:35:35;97553.06;;;11.07;36.95
25350;BME280;13302;48.796;11.978;2022-10-04T22:38:22;97552.25;;;11.07;36.83
25350;BME280;13302;48.796;11.978;2022-10-04T22:41:13;97540.38;;;11.06;36.68
25350;BME280;13302;48.796;11.978;2022-10-04T22:44:11;97541.41;;;11.01;36.60
25350;BME280;13302;48.796;11.978;2022-10-04T22:47:00;97545.31;;;11.00;36.82
25350;BME280;13302;48.796;11.978;2022-10-04T22:49:49;97541.72;;;11.00;36.69
25350;BME280;13302;48.796;11.978;2022-10-04T22:52:38;97540.91;;;10.99;36.42
25350;BME280;13302;48.796;11.978;2022-10-04T22:55:25;97533.78;;;10.98;36.67
25350;BME280;13302;48.796;11.978;2022-10-04T22:58:12;97542.41;;;10.97;36.61
25350;BME280;13302;48.796;11.978;2022-10-04T23:01:00;97539.19;;;10.95;36.67
25350;BME280;13302;48.796;11.978;2022-10-04T23:03:48;97542.59;;;10.92;36.47
25350;BME280;13302;48.796;11.978;2022-10-04T23:06:35;97549.63;;;10.89;36.79
25350;BME280;13302;48.796;11.978;2022-10-04T23:09:22;97554.34;;;10.89;36.66
25350;BME280;13302;48.796;11.978;2022-10-04T23:12:09;97549.94;;;10.88;36.49
25350;BME280;13302;48.796;11.978;2022-10-04T23:14:56;97542.31;;;10.85;36.44
25350;BME280;13302;48.796;11.978;2022-10-04T23:17:44;97560.41;;;10.82;36.74
25350;BME280;13302;48.796;11.978;2022-10-04T23:20:33;97553.59;;;10.80;36.84
25350;BME280;13302;48.796;11.978;2022-10-04T23:23:20;97555.88;;;10.78;36.54
25350;BME280;13302;48.796;11.978;2022-10-04T23:26:12;97549.41;;;10.74;36.86
25350;BME280;13302;48.796;11.978;2022-10-04T23:28:59;97546.66;;;10.74;36.55
25350;BME280;13302;48.796;11.978;2022-10-04T23:31:47;97546.50;;;10.70;36.60
25350;BME280;13302;48.796;11.978;2022-10-04T23:34:37;97541.63;;;10.67;36.60
25350;BME280;13302;48.796;11.978;2022-10-04T23:37:26;97537.25;;;10.66;36.63